createdAt,value
2023-05-22T00:01:48.625Z,13.20
2023-05-22T00:04:20.480Z,13.10
2023-05-22T00:06:46.710Z,13.10
2023-05-22T00:09:12.928Z,13.20
2023-05-22T00:11:39.125Z,11.30
2023-05-22T00:14:05.698Z,13.20
2023-05-22T00:16:32.092Z,13.20
2023-05-22T00:18:58.472Z,13.10
2023-05-22T00:21:27.133Z,13.20
2023-05-22T00:23:53.328Z,13.10
2023-05-22T00:26:22.610Z,13.10
2023-05-22T00:28:48.913Z,13.00
2023-05-22T00:31:15.901Z,13.10
2023-05-22T00:33:42.150Z,13.10
2023-05-22T00:36:08.913Z,13.00
2023-05-22T00:38:36.860Z,13.10
2023-05-22T00:41:04.226Z,13.00
2023-05-22T00:43:30.801Z,12.90
2023-05-22T00:45:57.049Z,12.90
2023-05-22T00:48:23.507Z,13.00
2023-05-22T00:50:50.181Z,12.80
2023-05-22T00:53:16.732Z,13.80
2023-05-22T00:55:43.602Z,12.80
2023-05-22T00:58:11.866Z,12.70
2023-05-22T01:00:39.182Z,12.60
2023-05-22T01:03:07.363Z,12.50
2023-05-22T01:05:34.263Z,12.50
2023-05-22T01:08:00.608Z,12.40
2023-05-22T01:10:27.360Z,12.50
2023-05-22T01:13:29.366Z,12.50
2023-05-22T01:19:15.413Z,12.50
2023-05-22T01:22:06.467Z,12.50
2023-05-22T01:28:21.744Z,12.40
2023-05-22T01:31:11.934Z,10.70
2023-05-22T01:33:57.522Z,12.10
2023-05-22T01:36:25.628Z,12.00
2023-05-22T01:38:52.102Z,11.90
2023-05-22T01:41:18.307Z,11.90
2023-05-22T01:43:45.417Z,11.90
2023-05-22T01:46:11.778Z,11.90
2023-05-22T01:48:38.181Z,11.90
2023-05-22T01:51:33.059Z,12.10
2023-05-22T01:55:44.629Z,12.10
2023-05-22T01:58:29.150Z,12.10
2023-05-22T02:00:55.811Z,12.20
2023-05-22T02:03:24.279Z,12.20
2023-05-22T02:05:52.817Z,12.30
2023-05-22T02:08:19.574Z,13.30
2023-05-22T02:10:45.804Z,12.20
2023-05-22T02:13:11.994Z,12.00
2023-05-22T02:15:38.543Z,12.10
2023-05-22T02:18:12.294Z,11.90
2023-05-22T02:20:38.896Z,11.90
2023-05-22T02:23:05.363Z,11.80
2023-05-22T02:25:31.542Z,11.80
2023-05-22T02:27:57.730Z,11.70
2023-05-22T02:30:23.935Z,11.70
2023-05-22T02:32:50.208Z,11.60
2023-05-22T02:35:16.491Z,11.50
2023-05-22T02:37:42.834Z,11.40
2023-05-22T02:40:09.835Z,11.50
2023-05-22T02:42:37.192Z,11.40
2023-05-22T02:45:04.543Z,11.40
2023-05-22T02:47:30.816Z,11.30
2023-05-22T02:50:00.034Z,11.20
2023-05-22T02:52:27.666Z,11.00
2023-05-22T02:54:53.945Z,10.90
2023-05-22T02:57:20.146Z,10.80
2023-05-22T02:59:46.369Z,10.70
2023-05-22T03:02:13.186Z,10.70
2023-05-22T03:04:40.168Z,10.60
2023-05-22T03:07:06.711Z,10.60
2023-05-22T03:09:32.968Z,10.60
2023-05-22T03:11:59.233Z,10.60
2023-05-22T03:14:25.464Z,10.50
2023-05-22T03:16:54.024Z,10.40
2023-05-22T03:19:20.361Z,10.40
2023-05-22T03:21:47.834Z,10.40
2023-05-22T03:24:14.047Z,10.40
2023-05-22T03:26:41.233Z,10.40
2023-05-22T03:29:10.231Z,10.40
2023-05-22T03:31:36.556Z,10.40
2023-05-22T03:34:04.981Z,10.40
2023-05-22T03:36:33.435Z,10.40
2023-05-22T03:39:00.152Z,10.60
2023-05-22T03:41:26.380Z,10.70
2023-05-22T03:43:52.621Z,10.90
2023-05-22T03:46:19.221Z,11.40
2023-05-22T03:48:45.629Z,12.00
2023-05-22T03:51:11.873Z,12.10
2023-05-22T03:53:38.100Z,12.10
2023-05-22T03:56:04.586Z,12.10
2023-05-22T03:58:30.789Z,12.50
2023-05-22T04:00:57.953Z,12.80
2023-05-22T04:03:24.336Z,13.10
2023-05-22T04:05:50.832Z,13.20
2023-05-22T04:08:17.468Z,13.80
2023-05-22T04:10:45.832Z,14.60
2023-05-22T04:13:15.843Z,15.20
2023-05-22T04:15:45.077Z,16.00
2023-05-22T04:18:11.819Z,16.80
2023-05-22T04:20:38.331Z,17.60
2023-05-22T04:23:04.787Z,17.70
2023-05-22T04:25:31.035Z,17.80
2023-05-22T04:27:58.944Z,17.60
2023-05-22T04:30:26.054Z,16.70
2023-05-22T04:32:52.668Z,16.60
2023-05-22T04:35:18.967Z,15.60
2023-05-22T04:37:45.699Z,15.40
2023-05-22T04:40:14.480Z,15.60
2023-05-22T04:42:41.632Z,15.90
2023-05-22T04:45:09.256Z,16.00
2023-05-22T04:47:37.591Z,15.90
2023-05-22T04:50:04.536Z,15.70
2023-05-22T04:52:30.770Z,15.50
2023-05-22T04:54:58.727Z,15.50
2023-05-22T04:57:26.620Z,15.30
2023-05-22T04:59:53.549Z,15.10
2023-05-22T05:02:19.785Z,15.10
2023-05-22T05:04:46.888Z,15.10
2023-05-22T05:07:16.895Z,15.10
2023-05-22T05:09:43.314Z,15.40
2023-05-22T05:12:09.547Z,15.50
2023-05-22T05:14:35.750Z,15.60
2023-05-22T05:17:02.050Z,15.60
2023-05-22T05:19:28.512Z,15.70
2023-05-22T05:21:54.858Z,15.80
2023-05-22T05:24:21.073Z,15.90
2023-05-22T05:26:47.580Z,15.90
2023-05-22T05:29:13.837Z,16.00
2023-05-22T05:31:40.160Z,16.20
2023-05-22T05:34:06.425Z,16.30
2023-05-22T05:36:32.609Z,16.50
2023-05-22T05:38:59.005Z,16.50
2023-05-22T05:41:26.046Z,16.40
2023-05-22T05:43:52.262Z,16.70
2023-05-22T05:46:18.945Z,16.80
2023-05-22T05:48:45.417Z,16.90
2023-05-22T05:51:11.647Z,17.00
2023-05-22T05:53:40.052Z,17.10
2023-05-22T05:56:07.637Z,17.30
2023-05-22T05:58:33.911Z,17.20
2023-05-22T06:01:00.380Z,17.60
2023-05-22T06:03:26.693Z,17.80
2023-05-22T06:05:53.024Z,17.60
2023-05-22T06:08:21.127Z,18.10
2023-05-22T06:10:47.775Z,18.20
2023-05-22T06:13:14.159Z,18.20
2023-05-22T06:15:40.630Z,18.20
2023-05-22T06:18:07.066Z,18.60
2023-05-22T06:20:33.428Z,18.70
2023-05-22T06:22:59.626Z,18.70
2023-05-22T06:25:29.303Z,18.70
2023-05-22T06:27:55.824Z,18.40
2023-05-22T06:30:31.891Z,18.30
2023-05-22T06:33:05.690Z,18.30
2023-05-22T06:35:32.017Z,18.50
2023-05-22T06:37:58.360Z,18.50
2023-05-22T06:40:24.967Z,18.50
2023-05-22T06:42:52.103Z,18.80
2023-05-22T06:45:19.178Z,19.10
2023-05-22T06:47:45.592Z,19.00
2023-05-22T06:50:14.380Z,19.20
2023-05-22T06:52:40.597Z,19.80
2023-05-22T06:55:07.870Z,20.10
2023-05-22T06:57:34.404Z,20.50
2023-05-22T07:00:00.952Z,20.10
2023-05-22T07:02:27.305Z,19.70
2023-05-22T07:04:53.603Z,20.60
2023-05-22T07:07:20.026Z,20.60
2023-05-22T07:09:46.264Z,20.70
2023-05-22T07:12:12.962Z,21.10
2023-05-22T07:14:39.359Z,20.70
2023-05-22T07:17:05.665Z,20.70
2023-05-22T07:19:32.144Z,21.40
2023-05-22T07:21:59.397Z,21.60
2023-05-22T07:24:25.757Z,22.50
2023-05-22T07:26:52.019Z,23.00
2023-05-22T07:29:18.288Z,23.50
2023-05-22T07:31:44.555Z,23.20
2023-05-22T07:34:10.837Z,23.40
2023-05-22T07:36:37.239Z,23.80
2023-05-22T07:39:04.790Z,24.50
2023-05-22T10:20:43.124Z,25.90
2023-05-22T10:23:09.542Z,25.20
2023-05-22T10:25:37.629Z,24.90
2023-05-22T10:28:04.162Z,25.00
2023-05-22T10:32:06.014Z,25.50
2023-05-22T10:35:11.164Z,24.90
2023-05-22T10:37:51.290Z,24.40
2023-05-22T10:40:29.600Z,24.20
2023-05-22T10:43:03.509Z,23.60
2023-05-22T10:45:29.808Z,23.70
2023-05-22T10:48:06.371Z,23.80
2023-05-22T10:50:33.867Z,23.70
2023-05-22T10:53:26.354Z,23.50
2023-05-22T10:55:53.619Z,23.40
2023-05-22T10:58:29.423Z,23.40
2023-05-22T11:01:17.753Z,24.00
2023-05-22T11:04:15.068Z,24.10
2023-05-22T11:07:01.489Z,24.10
2023-05-22T11:09:46.969Z,23.90
2023-05-22T11:12:30.337Z,24.30
2023-05-22T11:15:05.783Z,23.90
2023-05-22T11:17:44.178Z,24.60
2023-05-22T11:20:18.653Z,24.60
2023-05-22T11:22:50.376Z,24.90
2023-05-22T11:25:17.822Z,24.80
2023-05-22T11:27:44.418Z,24.80
2023-05-22T11:30:11.277Z,24.40
2023-05-22T11:32:38.306Z,24.50
2023-05-22T11:35:07.416Z,24.40
2023-05-22T11:37:40.358Z,24.20
2023-05-22T11:40:08.028Z,24.60
2023-05-22T11:42:35.303Z,24.90
2023-05-22T11:45:02.010Z,25.00
2023-05-22T11:47:28.496Z,25.40
2023-05-22T11:49:55.856Z,25.00
2023-05-22T11:52:22.145Z,24.90
2023-05-22T11:54:48.554Z,24.80
2023-05-22T11:57:14.766Z,24.90
2023-05-22T11:59:46.193Z,25.50
2023-05-22T12:02:13.872Z,25.50
2023-05-22T12:04:40.608Z,25.10
2023-05-22T12:07:07.414Z,25.40
2023-05-22T12:09:33.719Z,24.90
2023-05-22T12:12:00.065Z,24.90
2023-05-22T12:14:27.213Z,25.40
2023-05-22T12:16:54.238Z,26.10
2023-05-22T12:19:21.077Z,25.80
2023-05-22T12:21:50.153Z,25.90
2023-05-22T12:24:20.936Z,25.20
2023-05-22T12:26:50.878Z,26.00
2023-05-22T12:29:17.673Z,25.90
2023-05-22T12:31:45.816Z,25.10
2023-05-22T12:34:12.145Z,25.60
2023-05-22T12:36:39.514Z,25.70
2023-05-22T12:39:16.870Z,26.00
2023-05-22T12:41:46.650Z,26.50
2023-05-22T12:44:14.839Z,27.30
2023-05-22T12:46:41.289Z,27.10
2023-05-22T12:49:07.866Z,26.60
2023-05-22T12:51:34.307Z,25.50
2023-05-22T12:54:03.769Z,25.00
2023-05-22T12:56:30.280Z,24.90
2023-05-22T12:58:59.546Z,24.60
2023-05-22T13:01:25.920Z,24.70
2023-05-22T13:03:52.160Z,24.80
2023-05-22T13:06:18.879Z,24.80
2023-05-22T13:08:45.200Z,25.20
2023-05-22T13:11:11.881Z,25.40
2023-05-22T13:13:38.092Z,25.40
2023-05-22T13:16:05.046Z,25.30
2023-05-22T13:18:31.467Z,25.10
2023-05-22T13:20:59.353Z,25.30
2023-05-22T13:23:25.928Z,25.20
2023-05-22T13:25:52.317Z,24.90
2023-05-22T13:28:18.736Z,25.40
2023-05-22T13:30:45.247Z,26.00
2023-05-22T13:33:11.829Z,25.70
2023-05-22T13:35:38.424Z,25.90
2023-05-22T13:38:05.251Z,25.50
2023-05-22T13:40:31.568Z,25.60
2023-05-22T13:42:58.071Z,25.70
2023-05-22T13:45:24.340Z,25.10
2023-05-22T13:47:50.659Z,25.50
2023-05-22T13:50:17.016Z,25.40
2023-05-22T13:52:43.306Z,25.70
2023-05-22T13:55:09.841Z,25.80
2023-05-22T13:57:39.703Z,25.80
2023-05-22T14:00:08.094Z,25.80
2023-05-22T14:02:34.492Z,25.20
2023-05-22T14:05:00.900Z,25.60
2023-05-22T14:07:30.142Z,25.50
2023-05-22T14:09:57.635Z,25.50
2023-05-22T14:12:25.465Z,25.70
2023-05-22T14:14:51.757Z,25.70
2023-05-22T14:17:17.999Z,25.30
2023-05-22T14:19:44.311Z,25.40
2023-05-22T14:22:10.538Z,25.80
2023-05-22T14:24:36.703Z,25.60
2023-05-22T14:27:03.220Z,25.40
2023-05-22T14:29:30.306Z,25.90
2023-05-22T14:32:03.489Z,26.00
2023-05-22T14:34:29.692Z,25.70
2023-05-22T14:36:57.556Z,25.20
2023-05-22T14:39:26.968Z,25.10
2023-05-22T14:41:53.491Z,24.70
2023-05-22T14:44:21.843Z,25.10
2023-05-22T14:46:49.659Z,25.20
2023-05-22T14:49:16.017Z,25.00
2023-05-22T14:51:47.000Z,25.00
2023-05-22T14:54:15.751Z,25.10
2023-05-22T14:56:42.046Z,24.80
2023-05-22T14:59:08.861Z,24.70
2023-05-22T15:01:35.269Z,24.90
2023-05-22T15:04:01.485Z,25.10
2023-05-22T15:06:28.548Z,25.00
2023-05-22T15:08:54.798Z,25.00
2023-05-22T15:11:21.336Z,25.10
2023-05-22T15:13:48.334Z,24.90
2023-05-22T15:16:14.627Z,24.80
2023-05-22T15:18:41.008Z,24.90
2023-05-22T15:21:07.918Z,25.00
2023-05-22T15:23:34.193Z,25.00
2023-05-22T15:26:00.488Z,24.80
2023-05-22T15:28:26.756Z,24.50
2023-05-22T15:30:52.991Z,24.50
2023-05-22T15:33:19.871Z,24.50
2023-05-22T15:35:46.711Z,24.10
2023-05-22T15:38:14.752Z,24.00
2023-05-22T15:40:41.169Z,23.90
2023-05-22T15:43:07.522Z,23.90
2023-05-22T15:45:35.719Z,24.20
2023-05-22T15:48:05.318Z,24.20
2023-05-22T15:50:32.623Z,24.20
2023-05-22T15:53:00.155Z,23.90
2023-05-22T15:55:26.374Z,23.70
2023-05-22T15:57:52.594Z,23.80
2023-05-22T16:00:20.681Z,23.80
2023-05-22T16:02:48.094Z,23.80
2023-05-22T16:05:14.413Z,23.70
2023-05-22T16:07:40.928Z,23.60
2023-05-22T16:10:08.181Z,23.40
2023-05-22T16:12:34.779Z,23.40
2023-05-22T16:15:01.872Z,23.30
2023-05-22T16:17:29.129Z,23.20
2023-05-22T16:19:55.361Z,23.10
2023-05-22T16:22:21.594Z,23.10
2023-05-22T16:24:47.839Z,22.90
2023-05-22T16:27:14.333Z,22.80
2023-05-22T16:29:40.878Z,22.60
2023-05-22T16:32:08.000Z,22.50
2023-05-22T16:34:35.713Z,22.30
2023-05-22T16:37:02.014Z,22.30
2023-05-22T16:39:28.431Z,22.10
2023-05-22T16:41:54.676Z,22.00
2023-05-22T16:44:21.040Z,21.90
2023-05-22T16:46:49.046Z,21.70
2023-05-22T16:49:15.461Z,21.70
2023-05-22T16:51:41.735Z,21.50
2023-05-22T16:54:07.959Z,21.40
2023-05-22T16:56:34.152Z,21.30
2023-05-22T16:59:01.255Z,21.20
2023-05-22T17:01:27.769Z,21.20
2023-05-22T17:03:54.436Z,21.10
2023-05-22T17:06:21.133Z,20.90
2023-05-22T17:08:47.651Z,20.80
2023-05-22T17:11:13.946Z,20.80
2023-05-22T17:13:40.288Z,20.60
2023-05-22T17:16:06.532Z,20.50
2023-05-22T17:18:32.844Z,20.40
2023-05-22T17:20:59.709Z,20.40
2023-05-22T17:23:26.202Z,20.30
2023-05-22T17:25:52.522Z,20.30
2023-05-22T17:28:18.835Z,20.10
2023-05-22T17:30:45.588Z,20.10
2023-05-22T17:33:12.878Z,19.90
2023-05-22T17:35:39.278Z,19.90
2023-05-22T17:38:08.127Z,19.90
2023-05-22T17:40:43.998Z,19.80
2023-05-22T17:43:11.496Z,19.70
2023-05-22T17:45:37.889Z,19.60
2023-05-22T17:48:05.731Z,19.60
2023-05-22T17:50:31.939Z,19.40
2023-05-22T17:52:58.243Z,19.40
2023-05-22T17:55:24.427Z,19.30
2023-05-22T17:57:50.747Z,19.20
2023-05-22T18:00:18.483Z,19.10
2023-05-22T18:02:45.101Z,19.10
2023-05-22T18:05:11.427Z,18.90
2023-05-22T18:07:37.638Z,18.80
2023-05-22T18:10:04.590Z,18.70
2023-05-22T18:12:32.037Z,18.50
2023-05-22T18:14:58.795Z,18.40
2023-05-22T18:17:25.082Z,18.30
2023-05-22T18:19:51.328Z,18.20
2023-05-22T18:22:17.537Z,18.20
2023-05-22T18:24:43.939Z,18.10
2023-05-22T18:27:10.284Z,18.00
2023-05-22T18:29:36.577Z,17.90
2023-05-22T18:32:03.045Z,17.90
2023-05-22T18:34:30.874Z,17.70
2023-05-22T18:36:59.115Z,17.60
2023-05-22T18:39:25.590Z,17.50
2023-05-22T18:41:51.871Z,18.00
2023-05-22T18:44:18.602Z,17.20
2023-05-22T18:46:45.332Z,17.10
2023-05-22T18:49:11.868Z,17.00
2023-05-22T18:51:38.519Z,16.90
2023-05-22T18:54:05.107Z,16.90
2023-05-22T18:56:31.655Z,16.80
2023-05-22T18:58:58.525Z,16.70
2023-05-22T19:01:26.140Z,16.60
2023-05-22T19:03:54.814Z,16.40
2023-05-22T19:06:22.527Z,16.30
2023-05-22T19:08:48.826Z,16.10
2023-05-22T19:11:15.220Z,16.10
2023-05-22T19:13:42.475Z,16.00
2023-05-22T19:16:09.502Z,16.10
2023-05-22T19:18:36.076Z,16.00
2023-05-22T19:21:02.433Z,15.90
2023-05-22T19:23:28.958Z,15.90
2023-05-22T19:25:59.030Z,15.70
2023-05-22T19:28:25.441Z,15.60
2023-05-22T19:30:52.443Z,15.60
2023-05-22T19:33:20.906Z,15.50
2023-05-22T19:35:47.669Z,15.40
2023-05-22T19:38:14.364Z,15.30
2023-05-22T19:40:41.893Z,15.30
2023-05-22T19:43:08.607Z,15.20
2023-05-22T19:45:35.371Z,15.20
2023-05-22T19:48:01.966Z,15.20
2023-05-22T19:50:28.347Z,15.10
2023-05-22T19:52:54.715Z,15.10
2023-05-22T19:55:21.707Z,15.00
2023-05-22T19:57:48.029Z,15.00
2023-05-22T20:00:15.682Z,14.90
2023-05-22T20:02:49.389Z,14.70
2023-05-22T20:05:16.450Z,14.80
2023-05-22T20:07:43.684Z,14.80
2023-05-22T20:10:10.783Z,14.70
2023-05-22T20:12:38.409Z,14.70
2023-05-22T20:15:09.792Z,14.70
2023-05-22T20:17:40.794Z,14.70
2023-05-22T20:20:09.831Z,14.60
2023-05-22T20:22:36.477Z,14.50
2023-05-22T20:25:04.626Z,14.50
2023-05-22T20:27:31.417Z,14.40
2023-05-22T20:29:59.845Z,14.30
2023-05-22T20:32:26.410Z,14.20
2023-05-22T20:34:54.612Z,14.10
2023-05-22T20:37:23.653Z,14.10
2023-05-22T20:39:51.156Z,14.00
2023-05-22T20:42:17.519Z,13.80
2023-05-22T20:44:43.947Z,13.70
2023-05-22T20:47:10.265Z,13.50
2023-05-22T20:49:37.860Z,13.40
2023-05-22T20:52:05.046Z,13.40
2023-05-22T20:54:33.802Z,13.30
2023-05-22T20:57:00.814Z,13.30
2023-05-22T20:59:28.226Z,13.30
2023-05-22T21:01:56.217Z,13.20
2023-05-22T21:04:22.592Z,13.10
2023-05-22T21:06:48.930Z,13.10
2023-05-22T21:09:15.234Z,13.10
2023-05-22T21:11:41.500Z,13.00
2023-05-22T21:14:08.085Z,12.90
2023-05-22T21:16:35.725Z,12.80
2023-05-22T21:19:03.265Z,12.70
2023-05-22T21:21:30.528Z,12.60
2023-05-22T21:23:57.040Z,12.50
2023-05-22T21:26:26.864Z,12.40
2023-05-22T21:28:53.264Z,12.40
2023-05-22T21:31:19.521Z,12.40
2023-05-22T21:33:45.813Z,12.50
2023-05-22T21:36:12.222Z,12.50
2023-05-22T21:38:38.447Z,12.60
2023-05-22T21:41:04.990Z,12.70
2023-05-22T21:43:31.200Z,12.60
2023-05-22T21:45:57.384Z,12.60
2023-05-22T21:48:23.557Z,12.60
2023-05-22T21:50:49.807Z,12.60
2023-05-22T21:53:16.156Z,12.60
2023-05-22T21:55:42.495Z,12.60
2023-05-22T21:58:09.638Z,12.60
2023-05-22T22:00:36.586Z,12.70
2023-05-22T22:03:03.048Z,12.60
2023-05-22T22:05:29.537Z,12.60
2023-05-22T22:07:55.724Z,12.60
2023-05-22T22:10:21.968Z,12.60
2023-05-22T22:12:48.525Z,12.60
2023-05-22T22:15:14.890Z,12.50
2023-05-22T22:17:41.115Z,12.60
2023-05-22T22:20:10.832Z,12.50
2023-05-22T22:22:37.071Z,12.50
2023-05-22T22:25:04.098Z,12.50
2023-05-22T22:27:30.359Z,12.60
2023-05-22T22:29:56.579Z,12.80
2023-05-22T22:32:22.972Z,12.50
2023-05-22T22:34:53.087Z,12.60
2023-05-22T22:37:23.014Z,12.60
2023-05-22T22:39:49.379Z,12.60
2023-05-22T22:42:16.015Z,12.60
2023-05-22T22:44:42.901Z,12.50
2023-05-22T22:47:09.661Z,12.60
2023-05-22T22:49:36.673Z,12.60
2023-05-22T22:52:03.567Z,12.60
2023-05-22T22:54:29.950Z,12.50
2023-05-22T22:56:56.204Z,12.50
2023-05-22T22:59:22.474Z,12.40
2023-05-22T23:01:48.700Z,12.40
2023-05-22T23:04:15.154Z,12.30
2023-05-22T23:06:42.219Z,12.20
2023-05-22T23:09:09.307Z,12.00
2023-05-22T23:11:38.587Z,11.90
2023-05-22T23:14:07.946Z,11.80
2023-05-22T23:16:40.286Z,11.70
2023-05-22T23:19:07.095Z,11.80
2023-05-22T23:21:33.461Z,11.70
2023-05-22T23:24:00.217Z,11.60
2023-05-22T23:26:30.052Z,11.50
2023-05-22T23:28:57.446Z,11.60
2023-05-22T23:31:25.145Z,11.60
2023-05-22T23:33:52.420Z,11.60
2023-05-22T23:36:18.730Z,11.70
2023-05-22T23:38:48.054Z,11.50
2023-05-22T23:41:17.850Z,11.40
2023-05-22T23:43:44.673Z,11.40
2023-05-22T23:46:14.184Z,11.30
2023-05-22T23:48:41.034Z,11.20
2023-05-22T23:51:13.672Z,11.10
2023-05-22T23:53:41.328Z,10.90
2023-05-22T23:56:08.590Z,10.80
2023-05-22T23:58:35.365Z,11.50
